Time;durP1;ratioP1;P1;durP2;ratioP2;P2;SDS_P1;SDS_P2;PMS_P1;PMS_P2;Temp;Humidity;BMP_temperature;BMP_pressure;BME280_temperature;BME280_humidity;BME280_pressure;Samples;Min_cycle;Max_cycle;Signal;HPM_P1;HPM_P2
2022/01/17 00:04:51;;;;;;;4.55;2.95;;;18.70;58.70;;;;;;10500449;28;20146;-55
2022/01/17 00:09:51;;;;;;;4.78;2.80;;;18.70;58.70;;;;;;10506796;28;20041;-55
2022/01/17 00:14:55;;;;;;;3.72;2.17;;;18.70;58.60;;;;;;10515987;28;20028;-56
2022/01/17 00:19:57;;;;;;;3.42;2.28;;;18.70;58.60;;;;;;10490019;28;20032;-55
2022/01/17 00:24:57;;;;;;;4.35;3.00;;;18.60;58.80;;;;;;10500799;28;20491;-55
2022/01/17 00:29:59;;;;;;;3.63;2.55;;;18.60;58.70;;;;;;10507270;28;20144;-55
2022/01/17 00:34:59;;;;;;;3.33;2.55;;;18.60;58.70;;;;;;10497278;28;20472;-54
2022/01/17 00:40:00;;;;;;;3.83;2.78;;;18.70;58.70;;;;;;10483830;28;20123;-54
2022/01/17 00:45:06;;;;;;;4.18;2.88;;;18.60;58.70;;;;;;10501359;28;20118;-55
2022/01/17 00:50:08;;;;;;;3.15;2.30;;;18.70;58.60;;;;;;10519826;28;20112;-55
2022/01/17 00:55:10;;;;;;;4.35;2.95;;;18.60;58.70;;;;;;10483677;28;20037;-56
2022/01/17 01:00:13;;;;;;;3.47;2.50;;;18.60;59.30;;;;;;10516012;28;20029;-56
2022/01/17 01:05:13;;;;;;;3.67;2.22;;;18.60;58.70;;;;;;10528350;28;20044;-56
2022/01/17 01:10:14;;;;;;;3.35;1.92;;;18.60;58.60;;;;;;10523544;28;20439;-55
2022/01/17 01:15:33;;;;;;;2.92;2.03;;;18.60;58.80;;;;;;10495619;28;20462;-57
2022/01/17 01:31:07;;;;;;;3.10;2.30;;;18.70;58.60;;;;;;10501481;28;20043;-56
2022/01/17 01:36:17;;;;;;;2.72;1.65;;;18.60;58.70;;;;;;10505569;28;20366;-55
2022/01/17 01:41:18;;;;;;;2.50;1.98;;;18.70;58.60;;;;;;10499602;28;20024;-57
2022/01/17 01:46:20;;;;;;;4.28;2.60;;;18.60;58.60;;;;;;10492864;28;20567;-55
2022/01/17 01:51:20;;;;;;;2.83;2.13;;;18.70;58.60;;;;;;10522707;28;20426;-56
2022/01/17 01:56:21;;;;;;;3.45;2.10;;;18.60;58.70;;;;;;10498206;28;20077;-56
2022/01/17 02:01:22;;;;;;;3.55;2.35;;;18.70;58.60;;;;;;10480747;28;20032;-55
2022/01/17 02:06:23;;;;;;;2.92;1.83;;;18.60;58.70;;;;;;10507577;28;20040;-55
2022/01/17 02:11:24;;;;;;;2.55;2.00;;;18.60;58.70;;;;;;10519138;28;20381;-55
2022/01/17 02:16:25;;;;;;;2.67;1.70;;;18.60;58.70;;;;;;10496744;28;20119;-55
2022/01/17 02:21:46;;;;;;;2.33;1.70;;;18.60;58.80;;;;;;10521772;28;20028;-56
2022/01/17 02:26:49;;;;;;;2.80;2.00;;;18.60;59.30;;;;;;10516217;28;20528;-57
2022/01/17 02:31:50;;;;;;;3.55;1.75;;;18.60;58.70;;;;;;10515762;28;20044;-56
2022/01/17 02:36:50;;;;;;;2.50;1.83;;;18.60;58.60;;;;;;10510257;28;20484;-56
2022/01/17 02:41:51;;;;;;;2.65;1.50;;;18.70;59.80;;;;;;10517902;28;20507;-57
2022/01/17 02:46:52;;;;;;;2.97;1.83;;;18.80;59.60;;;;;;10503406;28;20152;-57
2022/01/17 02:51:54;;;;;;;2.38;1.55;;;18.80;60.60;;;;;;10506232;28;20111;-56
2022/01/17 02:56:54;;;;;;;2.40;1.60;;;18.70;60.40;;;;;;10496832;28;20040;-57
2022/01/17 03:01:56;;;;;;;2.53;1.55;;;18.70;61.20;;;;;;10496250;28;20120;-56
2022/01/17 03:06:57;;;;;;;2.70;1.63;;;18.70;61.10;;;;;;10484363;28;20032;-56
2022/01/17 03:11:58;;;;;;;3.42;1.30;;;18.60;61.20;;;;;;10461463;28;20427;-56
2022/01/17 03:16:58;;;;;;;3.25;1.88;;;18.60;61.10;;;;;;10499069;28;20040;-56
2022/01/17 03:21:59;;;;;;;2.40;1.45;;;18.60;61.20;;;;;;10483350;28;20036;-56
2022/01/17 03:27:00;;;;;;;2.65;1.67;;;18.60;60.90;;;;;;10484879;28;20024;-56
2022/01/17 03:32:00;;;;;;;2.10;1.30;;;18.70;60.80;;;;;;10520159;28;20131;-56
2022/01/17 03:37:01;;;;;;;2.33;1.35;;;18.60;60.90;;;;;;10524144;28;20032;-56
2022/01/17 03:42:03;;;;;;;3.95;1.42;;;18.60;60.80;;;;;;10478711;28;20521;-56
2022/01/17 03:47:04;;;;;;;2.35;1.35;;;18.50;60.90;;;;;;10503334;28;20036;-57
2022/01/17 03:52:05;;;;;;;2.88;2.08;;;18.60;60.90;;;;;;10518766;28;20028;-57
2022/01/17 03:57:06;;;;;;;2.63;1.63;;;18.60;60.80;;;;;;10524243;28;20036;-57
2022/01/17 04:02:07;;;;;;;1.77;1.13;;;18.60;60.80;;;;;;10495240;28;20024;-56
2022/01/17 04:07:07;;;;;;;2.20;1.25;;;18.60;60.70;;;;;;10508986;28;20040;-56
2022/01/17 04:12:08;;;;;;;3.20;1.75;;;18.60;60.70;;;;;;10529607;28;20055;-55
2022/01/17 04:17:09;;;;;;;2.00;1.00;;;18.50;60.60;;;;;;10521410;28;20066;-56
2022/01/17 04:22:11;;;;;;;1.23;0.98;;;18.50;60.70;;;;;;10477209;28;20111;-56
2022/01/17 04:27:11;;;;;;;1.00;0.80;;;18.50;60.60;;;;;;10500155;28;20036;-57
2022/01/17 04:32:12;;;;;;;2.15;1.17;;;18.60;60.30;;;;;;10522334;28;20507;-56
2022/01/17 04:37:13;;;;;;;1.88;1.10;;;18.60;60.10;;;;;;10542917;28;20441;-56
2022/01/17 04:42:16;;;;;;;2.45;1.15;;;18.60;60.20;;;;;;10508418;28;20024;-57
2022/01/17 04:47:17;;;;;;;2.95;1.08;;;18.60;60.70;;;;;;10512222;28;20024;-56
2022/01/17 04:52:18;;;;;;;1.75;0.90;;;18.60;60.20;;;;;;10543449;28;20031;-56
2022/01/17 04:57:20;;;;;;;1.75;1.08;;;18.60;60.10;;;;;;10503990;28;20043;-57
2022/01/17 05:02:21;;;;;;;2.28;1.05;;;18.50;60.10;;;;;;10502378;28;20036;-56
2022/01/17 05:07:22;;;;;;;2.00;1.10;;;18.60;59.90;;;;;;10499144;28;20051;-56
2022/01/17 05:12:24;;;;;;;2.08;1.02;;;18.60;59.90;;;;;;10486053;28;20032;-57
2022/01/17 05:22:31;;;;;;;2.33;0.90;;;18.60;59.70;;;;;;10499492;28;20044;-56
2022/01/17 05:27:32;;;;;;;1.88;1.00;;;18.60;59.80;;;;;;10528942;28;20031;-56
2022/01/17 05:32:33;;;;;;;1.42;0.95;;;18.60;59.90;;;;;;10541829;28;20063;-56
2022/01/17 05:37:33;;;;;;;1.20;0.90;;;18.60;59.90;;;;;;10517767;28;20476;-56
2022/01/17 05:42:34;;;;;;;2.40;1.23;;;18.60;60.00;;;;;;10508324;28;20033;-56
2022/01/17 05:47:36;;;;;;;1.90;0.90;;;18.60;60.10;;;;;;10518995;28;20032;-56
2022/01/17 05:52:37;;;;;;;1.60;1.10;;;18.70;59.80;;;;;;10491921;28;20108;-57
2022/01/17 05:57:38;;;;;;;3.63;1.13;;;18.70;60.00;;;;;;10503050;28;20148;-56
2022/01/17 06:02:39;;;;;;;3.03;0.88;;;18.80;60.70;;;;;;10517233;28;20044;-58
2022/01/17 06:07:40;;;;;;;2.63;1.05;;;18.70;60.80;;;;;;10512003;28;20384;-56
2022/01/17 06:12:41;;;;;;;3.63;1.42;;;18.60;61.70;;;;;;10509179;28;20024;-57
2022/01/17 06:17:41;;;;;;;3.17;1.20;;;18.70;61.00;;;;;;10513262;28;20033;-54
2022/01/17 06:22:42;;;;;;;6.15;1.30;;;18.70;62.20;;;;;;10526799;28;20166;-55
2022/01/17 06:27:43;;;;;;;3.03;1.02;;;18.70;62.20;;;;;;10509091;28;20039;-57
2022/01/17 06:32:43;;;;;;;4.65;1.25;;;18.70;61.90;;;;;;10514924;28;20109;-58
2022/01/17 06:37:45;;;;;;;8.05;1.80;;;18.70;61.80;;;;;;10504493;28;20085;-58
2022/01/17 06:42:46;;;;;;;8.40;1.58;;;18.70;62.60;;;;;;10484443;28;20035;-57
2022/01/17 06:47:47;;;;;;;7.15;1.88;;;18.60;63.10;;;;;;10513193;28;20025;-56
2022/01/17 06:52:48;;;;;;;7.93;1.65;;;18.60;62.40;;;;;;10497474;28;20029;-55
2022/01/17 06:57:49;;;;;;;9.02;2.42;;;18.60;62.60;;;;;;10505213;28;20381;-56
2022/01/17 07:02:50;;;;;;;15.50;3.75;;;18.70;62.20;;;;;;10508174;28;20231;-56
2022/01/17 07:07:51;;;;;;;20.02;2.58;;;18.70;62.30;;;;;;10514717;28;20436;-57
2022/01/17 07:12:51;;;;;;;15.88;3.20;;;18.70;62.30;;;;;;10477437;28;20029;-54
2022/01/17 07:17:52;;;;;;;14.15;3.10;;;18.70;61.90;;;;;;10492361;28;20036;-55
2022/01/17 07:22:53;;;;;;;9.40;2.13;;;18.70;61.80;;;;;;10491767;28;20435;-55
2022/01/17 07:27:55;;;;;;;12.57;2.90;;;18.70;61.30;;;;;;10473664;28;20488;-56
2022/01/17 07:32:55;;;;;;;9.43;2.08;;;18.70;61.30;;;;;;10492890;28;20094;-56
2022/01/17 07:37:57;;;;;;;11.63;2.85;;;18.70;61.50;;;;;;10493697;28;20549;-57
2022/01/17 07:42:58;;;;;;;16.30;2.70;;;18.60;61.80;;;;;;10504008;28;20039;-56
2022/01/17 07:53:05;;;;;;;8.07;2.33;;;18.80;61.50;;;;;;10491029;28;20037;-55
2022/01/17 07:58:06;;;;;;;11.27;2.08;;;18.80;61.20;;;;;;10512119;28;20031;-56
2022/01/17 08:03:06;;;;;;;8.27;2.38;;;18.80;61.50;;;;;;10518027;28;20039;-59
2022/01/17 08:08:07;;;;;;;19.00;2.78;;;18.50;62.80;;;;;;10483821;28;20031;-56
2022/01/17 08:13:09;;;;;;;11.82;2.20;;;18.50;63.10;;;;;;10512060;28;20602;-57
2022/01/17 08:18:11;;;;;;;7.43;1.90;;;18.50;63.50;;;;;;10528779;28;20112;-57
2022/01/17 08:23:12;;;;;;;12.07;2.70;;;18.40;63.50;;;;;;10522907;28;20040;-57
2022/01/17 08:28:13;;;;;;;10.52;2.10;;;18.40;63.80;;;;;;10527201;28;20068;-57
2022/01/17 08:33:14;;;;;;;9.02;2.67;;;18.40;63.80;;;;;;10492750;28;20404;-57
2022/01/17 08:38:15;;;;;;;9.02;2.05;;;18.40;64.00;;;;;;10516583;28;20032;-57
2022/01/17 08:43:15;;;;;;;8.38;2.00;;;18.30;64.40;;;;;;10525518;28;20470;-57
2022/01/17 08:48:16;;;;;;;6.57;1.63;;;18.30;63.90;;;;;;10479316;28;20196;-56
2022/01/17 08:53:17;;;;;;;9.05;2.55;;;18.40;63.30;;;;;;10483188;28;20016;-56
2022/01/17 08:58:18;;;;;;;14.93;2.67;;;18.40;62.80;;;;;;10482811;28;20070;-57
2022/01/17 09:03:20;;;;;;;5.90;1.40;;;18.40;62.80;;;;;;10515758;28;20059;-57
2022/01/17 09:08:22;;;;;;;10.15;2.25;;;18.50;63.00;;;;;;10516837;28;20032;-56
2022/01/17 09:13:25;;;;;;;6.30;2.10;;;18.50;62.50;;;;;;10507728;28;20028;-56
2022/01/17 09:18:25;;;;;;;7.07;1.42;;;18.40;62.40;;;;;;10502695;28;20134;-54
2022/01/17 09:23:26;;;;;;;6.05;1.90;;;18.40;62.90;;;;;;10508727;28;20168;-56
2022/01/17 09:28:28;;;;;;;5.70;1.92;;;18.50;62.10;;;;;;10536268;28;20024;-56
2022/01/17 09:33:29;;;;;;;5.57;1.30;;;18.50;61.80;;;;;;10480414;28;20049;-54
2022/01/17 09:38:29;;;;;;;8.25;2.13;;;18.50;61.90;;;;;;10480151;28;20035;-54
2022/01/17 09:43:30;;;;;;;4.78;1.85;;;18.50;61.70;;;;;;10496669;28;20020;-58
2022/01/17 09:48:36;;;;;;;4.07;1.63;;;18.40;61.90;;;;;;10518121;28;20065;-54
2022/01/17 09:53:39;;;;;;;11.63;2.05;;;18.50;61.70;;;;;;10526844;28;20468;-55
2022/01/17 09:58:41;;;;;;;4.72;1.75;;;18.50;61.40;;;;;;10517643;28;20026;-55
2022/01/17 10:03:41;;;;;;;8.50;1.67;;;18.50;61.50;;;;;;10491957;28;20074;-55
2022/01/17 10:08:42;;;;;;;4.80;1.73;;;18.50;61.30;;;;;;10494936;28;20040;-55
2022/01/17 10:13:45;;;;;;;5.45;1.80;;;18.40;61.20;;;;;;10489554;28;20032;-57
2022/01/17 10:18:50;;;;;;;6.75;2.33;;;18.40;61.70;;;;;;10531226;28;20071;-57
2022/01/17 10:34:54;;;;;;;11.32;3.65;;;18.30;61.80;;;;;;10484965;28;20072;-56
2022/01/17 10:40:00;;;;;;;11.25;2.85;;;18.30;61.70;;;;;;10463138;28;20029;-56
2022/01/17 10:45:15;;;;;;;7.05;2.35;;;18.40;61.70;;;;;;10528237;28;20028;-55
2022/01/17 10:50:20;;;;;;;5.93;1.75;;;18.40;61.60;;;;;;10485834;28;20407;-55
2022/01/17 10:55:27;;;;;;;7.38;2.13;;;18.40;61.90;;;;;;10511717;28;20090;-56
2022/01/17 11:00:46;;;;;;;7.47;2.33;;;18.40;62.20;;;;;;10504250;28;20028;-54
2022/01/17 11:05:54;;;;;;;7.50;2.00;;;18.30;63.20;;;;;;10498592;28;20107;-56
2022/01/17 11:11:01;;;;;;;11.00;2.72;;;18.20;63.40;;;;;;10478926;28;20047;-58
2022/01/17 11:16:07;;;;;;;11.15;2.45;;;18.20;63.60;;;;;;10492320;28;20032;-57
2022/01/17 11:21:14;;;;;;;6.03;1.95;;;18.20;63.70;;;;;;10479927;28;20028;-57
2022/01/17 11:26:18;;;;;;;8.85;2.15;;;18.20;63.80;;;;;;10462131;28;20033;-57
2022/01/17 11:31:19;;;;;;;12.40;2.17;;;18.30;63.90;;;;;;10510193;28;20074;-57
2022/01/17 11:36:20;;;;;;;12.65;2.60;;;18.30;63.90;;;;;;10469025;28;20067;-57
2022/01/17 11:41:29;;;;;;;11.93;2.10;;;18.30;63.30;;;;;;10509096;28;20056;-56
2022/01/17 11:46:32;;;;;;;;;;;18.40;62.80;;;;;;10508461;28;20032;-57
2022/01/17 11:51:46;;;;;;;9.07;2.38;;;18.50;62.40;;;;;;10526915;28;19909;-57
2022/01/17 11:56:53;;;;;;;8.93;1.70;;;18.40;62.40;;;;;;10548996;28;20024;-57
2022/01/17 12:02:14;;;;;;;4.95;1.60;;;18.50;62.10;;;;;;10515238;28;20463;-57
2022/01/17 12:07:14;;;;;;;5.30;1.88;;;18.50;62.00;;;;;;10526362;28;20029;-57
2022/01/17 12:12:16;;;;;;;9.07;1.50;;;18.40;61.80;;;;;;10522219;28;20131;-58
2022/01/17 12:17:20;;;;;;;9.25;2.90;;;18.40;61.70;;;;;;10528623;28;20033;-56
2022/01/17 12:22:21;;;;;;;7.85;2.22;;;18.40;61.90;;;;;;10539904;28;20440;-58
2022/01/17 12:27:25;;;;;;;11.20;2.35;;;18.40;62.30;;;;;;10522090;28;20028;-58
2022/01/17 12:32:26;;;;;;;11.32;2.40;;;18.60;61.80;;;;;;10442241;28;20099;-56
2022/01/17 12:37:44;;;;;;;7.82;2.03;;;18.50;62.30;;;;;;10423996;28;20172;-59
2022/01/17 12:43:03;;;;;;;6.18;2.60;;;18.60;62.40;;;;;;10453434;28;20033;-59
2022/01/17 12:48:20;;;;;;;9.10;1.67;;;18.70;62.20;;;;;;10460381;28;20370;-57
2022/01/17 12:53:26;;;;;;;6.45;2.08;;;18.60;62.80;;;;;;10422441;28;20049;-56
2022/01/17 12:58:38;;;;;;;10.52;2.35;;;18.50;62.60;;;;;;10440417;28;20037;-57
2022/01/17 13:03:43;;;;;;;3.92;2.13;;;18.30;62.60;;;;;;10418027;28;20052;-56
2022/01/17 13:08:46;;;;;;;7.30;1.77;;;18.30;62.50;;;;;;10419837;28;20037;-56
2022/01/17 13:14:01;;;;;;;8.90;2.13;;;18.40;62.50;;;;;;10414721;28;20042;-56
2022/01/17 13:19:06;;;;;;;9.57;2.30;;;18.40;62.10;;;;;;10415692;28;20428;-55
2022/01/17 13:24:17;;;;;;;8.48;1.67;;;18.40;62.30;;;;;;10425394;28;20029;-56
2022/01/17 13:29:18;;;;;;;5.22;1.80;;;18.30;62.90;;;;;;10403782;28;20075;-56
2022/01/17 13:34:28;;;;;;;8.95;2.22;;;18.60;62.40;;;;;;10416505;28;20107;-56
2022/01/17 13:39:28;;;;;;;;;;;18.70;62.20;;;;;;10417067;28;20045;-55
2022/01/17 13:44:38;;;;;;;8.20;2.20;;;18.70;62.50;;;;;;10432668;28;20004;-55
2022/01/17 13:49:47;;;;;;;7.03;2.00;;;18.60;62.80;;;;;;10457015;28;20115;-56
2022/01/17 13:54:54;;;;;;;6.07;1.77;;;18.60;63.30;;;;;;10457119;28;20381;-56
2022/01/17 14:00:10;;;;;;;7.82;2.60;;;18.60;63.10;;;;;;10456889;28;20029;-56
2022/01/17 14:05:14;;;;;;;8.02;2.47;;;18.50;63.40;;;;;;10415864;28;20064;-55
2022/01/17 14:10:30;;;;;;;8.40;2.00;;;18.40;63.80;;;;;;10418651;28;20038;-54
2022/01/17 14:15:33;;;;;;;11.90;1.92;;;18.40;63.70;;;;;;10414517;28;20282;-55
2022/01/17 14:20:37;;;;;;;19.50;2.63;;;18.50;63.40;;;;;;10416877;28;20057;-56
2022/01/17 14:25:39;;;;;;;8.68;1.88;;;18.60;63.20;;;;;;10412934;28;20037;-56
2022/01/17 14:30:40;;;;;;;6.22;2.13;;;18.60;63.10;;;;;;10433686;28;20036;-55
2022/01/17 14:36:11;;;;;;;8.27;1.63;;;18.60;63.20;;;;;;10491618;28;20036;-55
2022/01/17 14:41:19;;;;;;;12.40;2.03;;;18.60;63.40;;;;;;10537655;28;20452;-54
2022/01/17 14:46:25;;;;;;;12.15;2.50;;;18.60;63.40;;;;;;10537960;28;20495;-55
2022/01/17 14:51:31;;;;;;;13.35;2.60;;;18.60;63.50;;;;;;10537492;28;20062;-56
2022/01/17 15:02:02;;;;;;;18.17;3.38;;;18.40;64.30;;;;;;10495554;28;20040;-55
2022/01/17 15:07:06;;;;;;;21.73;3.72;;;18.30;64.20;;;;;;10519459;28;20062;-55
2022/01/17 15:12:08;;;;;;;15.52;3.80;;;18.40;63.50;;;;;;10494654;28;20583;-55
2022/01/17 15:17:21;;;;;;;20.38;3.17;;;18.50;63.40;;;;;;10524327;28;20068;-55
2022/01/17 15:22:22;;;;;;;18.38;3.85;;;18.50;63.40;;;;;;10521360;28;20701;-55
2022/01/17 15:27:23;;;;;;;14.68;2.60;;;18.50;63.00;;;;;;10520001;28;20028;-56
2022/01/17 15:32:24;;;;;;;11.93;3.15;;;18.40;63.10;;;;;;10517877;28;20048;-55
2022/01/17 15:37:25;;;;;;;13.82;2.17;;;18.40;63.10;;;;;;10459634;28;20029;-55
2022/01/17 15:42:25;;;;;;;10.60;2.50;;;18.40;63.30;;;;;;10477884;28;20066;-55
2022/01/17 15:47:26;;;;;;;8.68;2.40;;;18.40;62.90;;;;;;10530436;28;20028;-55
2022/01/17 15:52:27;;;;;;;8.85;3.20;;;18.40;62.90;;;;;;10479321;28;20051;-55
2022/01/17 15:57:28;;;;;;;15.48;3.42;;;18.40;62.70;;;;;;10500622;28;20456;-56
2022/01/17 16:02:28;;;;;;;14.32;3.28;;;18.40;62.10;;;;;;10516921;28;20111;-56
2022/01/17 16:07:29;;;;;;;12.07;3.08;;;18.40;62.00;;;;;;10511269;28;20031;-56
2022/01/17 16:12:36;;;;;;;17.92;3.30;;;18.50;62.00;;;;;;10519353;28;20027;-56
2022/01/17 16:17:39;;;;;;;17.83;2.60;;;18.50;62.00;;;;;;10536995;28;20028;-55
2022/01/17 16:22:39;;;;;;;12.48;3.17;;;18.60;62.00;;;;;;10514624;28;20078;-55
2022/01/17 16:27:40;;;;;;;11.65;3.33;;;18.60;62.00;;;;;;10534430;28;20077;-54
2022/01/17 16:32:41;;;;;;;12.80;3.03;;;18.70;62.10;;;;;;10537740;28;20090;-56
2022/01/17 16:37:42;;;;;;;10.55;2.97;;;18.60;62.40;;;;;;10520350;28;20377;-56
2022/01/17 16:42:42;;;;;;;13.10;3.65;;;18.70;62.50;;;;;;10501006;28;20512;-56
2022/01/17 16:47:43;;;;;;;9.63;3.05;;;18.40;63.00;;;;;;10519163;28;20032;-55
2022/01/17 16:52:44;;;;;;;9.18;2.58;;;18.50;63.10;;;;;;10517916;28;20028;-57
2022/01/17 16:57:45;;;;;;;8.60;2.30;;;18.50;63.10;;;;;;10498908;28;20028;-54
2022/01/17 17:02:46;;;;;;;8.18;2.13;;;18.40;62.80;;;;;;10502393;28;20059;-54
2022/01/17 17:07:47;;;;;;;7.57;2.28;;;18.40;63.00;;;;;;10484889;28;20032;-55
2022/01/17 17:12:48;;;;;;;11.95;3.20;;;18.50;61.80;;;;;;10512818;28;20020;-54
2022/01/17 17:17:48;;;;;;;13.30;4.03;;;18.60;61.80;;;;;;10513503;28;20028;-56
2022/01/17 17:22:49;;;;;;;13.68;3.28;;;18.70;64.00;;;;;;10486460;28;20466;-56
2022/01/17 17:27:50;;;;;;;7.40;3.13;;;18.90;66.20;;;;;;10512783;28;20483;-56
2022/01/17 17:32:50;;;;;;;14.13;3.33;;;19.10;65.90;;;;;;10499368;28;20492;-56
2022/01/17 17:37:51;;;;;;;10.80;2.40;;;19.00;65.90;;;;;;10481667;28;20029;-54
2022/01/17 17:42:52;;;;;;;10.48;2.63;;;19.00;65.60;;;;;;10497662;28;20037;-52
2022/01/17 17:47:53;;;;;;;14.13;2.67;;;18.80;65.50;;;;;;10503194;28;20036;-53
2022/01/17 17:52:54;;;;;;;20.00;3.22;;;18.80;65.20;;;;;;10525890;28;20419;-54
2022/01/17 17:57:54;;;;;;;12.05;2.90;;;18.70;65.30;;;;;;10521398;28;20113;-55
2022/01/17 18:02:55;;;;;;;13.65;3.88;;;18.70;65.40;;;;;;10499735;28;20107;-53
2022/01/17 18:07:57;;;;;;;9.30;3.75;;;18.60;65.30;;;;;;10495351;28;20177;-53
2022/01/17 18:12:57;;;;;;;7.32;2.38;;;18.50;65.60;;;;;;10513534;28;20025;-53
2022/01/17 18:17:58;;;;;;;10.60;2.55;;;18.40;66.20;;;;;;10512388;28;20396;-50
2022/01/17 18:22:59;;;;;;;6.57;1.92;;;18.50;65.90;;;;;;10520265;28;20024;-52
2022/01/17 18:28:00;;;;;;;7.00;2.15;;;18.50;65.80;;;;;;10511190;28;20477;-52
2022/01/17 18:33:00;;;;;;;7.55;2.05;;;18.40;66.10;;;;;;10480104;28;20054;-53
2022/01/17 18:38:01;;;;;;;7.93;2.60;;;18.40;66.00;;;;;;10478435;28;20032;-53
2022/01/17 18:43:02;;;;;;;8.63;2.13;;;18.50;65.50;;;;;;10477950;28;20036;-53
2022/01/17 18:48:03;;;;;;;8.25;1.63;;;18.50;65.60;;;;;;10495381;28;20058;-52
2022/01/17 18:53:04;;;;;;;9.98;2.17;;;18.40;65.60;;;;;;10476958;28;20032;-49
2022/01/17 18:58:06;;;;;;;6.65;1.85;;;18.50;65.40;;;;;;10506413;28;20032;-52
2022/01/17 19:03:07;;;;;;;4.55;1.75;;;18.50;64.80;;;;;;10497419;28;20206;-54
2022/01/17 19:08:08;;;;;;;6.55;1.58;;;18.60;64.70;;;;;;10516011;28;20060;-53
2022/01/17 19:13:10;;;;;;;6.15;2.17;;;18.50;64.80;;;;;;10530183;28;20059;-52
2022/01/17 19:18:25;;;;;;;7.13;2.00;;;18.60;64.50;;;;;;10518846;28;20031;-53
2022/01/17 19:23:25;;;;;;;5.05;1.80;;;18.60;64.40;;;;;;10494845;28;20386;-53
2022/01/17 19:28:26;;;;;;;7.55;2.13;;;18.50;64.50;;;;;;10509009;28;20028;-53
2022/01/17 19:33:27;;;;;;;5.70;1.92;;;18.40;64.70;;;;;;10484174;28;20048;-53
2022/01/17 19:38:28;;;;;;;7.38;1.80;;;18.50;64.40;;;;;;10518766;28;20482;-52
2022/01/17 19:43:29;;;;;;;4.00;1.48;;;18.50;64.40;;;;;;10526679;28;20020;-54
2022/01/17 19:48:29;;;;;;;8.27;2.05;;;18.50;64.40;;;;;;10514642;28;20046;-53
2022/01/17 19:53:33;;;;;;;6.05;1.33;;;18.50;64.10;;;;;;10530006;28;20054;-54
2022/01/17 19:58:33;;;;;;;3.75;1.42;;;18.50;64.20;;;;;;10514340;28;20054;-54
2022/01/17 20:03:34;;;;;;;5.35;2.28;;;18.50;64.10;;;;;;10530722;28;20102;-54
2022/01/17 20:08:35;;;;;;;5.28;1.40;;;18.50;64.10;;;;;;10539022;28;20024;-52
2022/01/17 20:13:36;;;;;;;5.60;1.23;;;18.50;64.10;;;;;;10519282;28;20491;-52
2022/01/17 20:18:36;;;;;;;4.00;1.40;;;18.60;63.90;;;;;;10531543;28;20106;-51
2022/01/17 20:23:37;;;;;;;3.90;1.10;;;18.50;64.00;;;;;;10503517;28;20038;-53
2022/01/17 20:28:41;;;;;;;6.25;1.25;;;18.60;64.00;;;;;;10499729;28;20060;-51
2022/01/17 20:33:42;;;;;;;4.15;1.42;;;18.50;63.90;;;;;;10498359;28;20040;-54
2022/01/17 20:38:43;;;;;;;4.10;1.20;;;18.50;64.20;;;;;;10527200;28;20032;-53
2022/01/17 20:43:44;;;;;;;6.57;1.50;;;18.50;64.10;;;;;;10507747;28;20024;-53
2022/01/17 20:48:45;;;;;;;4.57;1.98;;;18.50;64.20;;;;;;10524858;28;20231;-51
2022/01/17 20:53:46;;;;;;;4.38;1.55;;;18.40;64.30;;;;;;10505890;28;20457;-53
2022/01/17 20:58:48;;;;;;;3.25;1.10;;;18.40;64.20;;;;;;10524133;28;20024;-53
2022/01/17 21:03:50;;;;;;;3.05;0.98;;;18.40;64.10;;;;;;10500273;28;20051;-54
2022/01/17 21:08:50;;;;;;;5.10;1.80;;;18.40;64.20;;;;;;10509766;28;20123;-53
2022/01/17 21:13:51;;;;;;;3.85;1.13;;;18.40;64.30;;;;;;10503070;28;20115;-53
2022/01/17 21:18:53;;;;;;;5.22;1.77;;;18.40;64.10;;;;;;10527799;28;20115;-52
2022/01/17 21:23:54;;;;;;;5.93;2.03;;;18.40;64.00;;;;;;10494534;28;20021;-53
2022/01/17 21:28:54;;;;;;;2.97;1.15;;;18.40;64.00;;;;;;10501374;28;20032;-53
2022/01/17 21:33:58;;;;;;;9.10;1.40;;;18.40;63.90;;;;;;10521605;28;20451;-52
2022/01/17 21:38:59;;;;;;;2.50;1.00;;;18.40;63.70;;;;;;10519025;28;20036;-53
2022/01/17 21:44:00;;;;;;;3.78;1.38;;;18.40;63.80;;;;;;10482098;28;20021;-53
2022/01/17 21:49:00;;;;;;;4.60;2.17;;;18.50;63.60;;;;;;10482555;28;20032;-53
2022/01/17 21:54:02;;;;;;;3.80;1.00;;;18.40;63.60;;;;;;10500130;28;20029;-52
2022/01/17 21:59:02;;;;;;;3.58;1.08;;;18.40;63.60;;;;;;10519977;28;20415;-53
2022/01/17 22:04:04;;;;;;;3.25;1.02;;;18.40;63.60;;;;;;10518010;28;20070;-52
2022/01/17 22:09:05;;;;;;;4.60;1.40;;;18.40;63.60;;;;;;10512513;28;20029;-52
2022/01/17 22:14:05;;;;;;;3.67;1.33;;;18.40;63.60;;;;;;10500468;28;20046;-53
2022/01/17 22:19:06;;;;;;;4.45;1.27;;;18.40;63.60;;;;;;10524703;28;20028;-52
2022/01/17 22:24:07;;;;;;;2.00;0.90;;;18.40;63.60;;;;;;10480962;28;20111;-53
2022/01/17 22:29:08;;;;;;;2.90;1.13;;;18.50;63.40;;;;;;10505534;28;20473;-53
2022/01/17 22:34:09;;;;;;;2.42;1.20;;;18.40;63.30;;;;;;10521822;28;20040;-53
2022/01/17 22:39:11;;;;;;;4.25;0.90;;;18.50;63.10;;;;;;10518803;28;20043;-53
2022/01/17 22:44:12;;;;;;;2.53;0.93;;;18.50;63.60;;;;;;10506561;28;20024;-51
2022/01/17 22:49:13;;;;;;;1.98;1.38;;;18.50;62.90;;;;;;10475309;28;20458;-54
2022/01/17 22:54:14;;;;;;;3.08;0.88;;;18.60;62.80;;;;;;10497395;28;20020;-52
2022/01/17 22:59:15;;;;;;;2.35;0.93;;;18.60;62.80;;;;;;10495043;28;20036;-54
2022/01/17 23:04:16;;;;;;;2.75;1.27;;;18.60;63.50;;;;;;10498368;28;20024;-54
2022/01/17 23:09:19;;;;;;;3.22;1.08;;;18.50;63.00;;;;;;10506452;28;20032;-52
2022/01/17 23:14:20;;;;;;;2.78;1.25;;;18.50;62.90;;;;;;10504460;28;20043;-53
2022/01/17 23:20:07;;;;;;;3.28;1.08;;;18.50;62.80;;;;;;10502632;28;20040;-52
2022/01/17 23:24:44;;;;;;;3.58;0.95;;;18.60;62.80;;;;;;10473624;28;20125;-53
2022/01/17 23:29:47;;;;;;;5.32;1.52;;;18.60;62.60;;;;;;10494140;28;20436;-54
2022/01/17 23:34:48;;;;;;;1.60;1.00;;;18.60;62.70;;;;;;10479451;28;20028;-52
2022/01/17 23:39:52;;;;;;;2.72;0.90;;;18.60;62.70;;;;;;10509432;28;20032;-51
2022/01/17 23:44:53;;;;;;;3.83;1.52;;;18.60;62.70;;;;;;10505770;28;20081;-52
2022/01/17 23:49:58;;;;;;;3.53;1.00;;;18.60;62.60;;;;;;10490930;28;20032;-51
2022/01/17 23:55:01;;;;;;;3.25;1.20;;;18.60;62.50;;;;;;10493246;28;20028;-54
